Jerico Springs, Missouri
Current Conditions -  °F | °C
As of 6:35 PM on Monday 22 Dec 2014 (Local Time) from KPTS Reporting Station
Clear Clear  
Wind Chill: 47°   Ceiling: Unl
Heat Index: 47°   Visibility: 10mi
Dew Point: 45°   Wind: 3mph
Humidity: 92%   Direction: 280°W
Pressure: 29.57"   Gusts: NA
Location:  37.62°N, 94.01°W
Report Text: KPTS 230035Z AUTO 28003KT 10SM CLR 08/07 A2957 RMK AO2 T00830071
Loading
Personal Weather Stations






























Interactive Weather Map New forecast layout! Learn more

10-Day Weather Forecast

Advertisements
Track Severe Weather on mobile